sensor_id;sensor_type;location;lat;lon;timestamp;pressure;altitude;pressure_sealevel;temperature;humidity
42105;BME280;70664;51.472;5.712;2023-08-06T00:00:44;100212.06;;;19.95;65.26
42105;BME280;70664;51.472;5.712;2023-08-06T00:03:10;100216.34;;;19.96;65.25
42105;BME280;70664;51.472;5.712;2023-08-06T00:05:35;100215.44;;;19.97;65.38
42105;BME280;70664;51.472;5.712;2023-08-06T00:08:01;100214.66;;;19.95;65.19
42105;BME280;70664;51.472;5.712;2023-08-06T00:10:28;100217.28;;;19.95;65.58
42105;BME280;70664;51.472;5.712;2023-08-06T00:12:53;100209.44;;;19.95;65.45
42105;BME280;70664;51.472;5.712;2023-08-06T00:15:19;100206.84;;;19.95;65.25
42105;BME280;70664;51.472;5.712;2023-08-06T00:17:45;100210.44;;;19.92;65.21
42105;BME280;70664;51.472;5.712;2023-08-06T00:20:11;100201.75;;;19.91;65.29
42105;BME280;70664;51.472;5.712;2023-08-06T00:22:38;100202.63;;;19.92;65.43
42105;BME280;70664;51.472;5.712;2023-08-06T00:25:05;100202.53;;;19.94;65.52
42105;BME280;70664;51.472;5.712;2023-08-06T00:27:31;100200.84;;;19.93;65.06
42105;BME280;70664;51.472;5.712;2023-08-06T00:29:58;100199.94;;;19.94;65.13
42105;BME280;70664;51.472;5.712;2023-08-06T00:32:24;100200.00;;;19.92;65.47
42105;BME280;70664;51.472;5.712;2023-08-06T00:34:50;100193.03;;;19.93;65.49
42105;BME280;70664;51.472;5.712;2023-08-06T00:37:17;100185.28;;;19.91;65.16
42105;BME280;70664;51.472;5.712;2023-08-06T00:39:43;100185.28;;;19.91;65.43
42105;BME280;70664;51.472;5.712;2023-08-06T00:42:12;100192.25;;;19.90;65.60
42105;BME280;70664;51.472;5.712;2023-08-06T00:44:39;100181.88;;;19.89;65.24
42105;BME280;70664;51.472;5.712;2023-08-06T00:47:07;100194.78;;;19.92;65.54
42105;BME280;70664;51.472;5.712;2023-08-06T00:49:35;100188.81;;;19.90;65.57
42105;BME280;70664;51.472;5.712;2023-08-06T00:52:02;100180.09;;;19.89;65.34
42105;BME280;70664;51.472;5.712;2023-08-06T00:54:29;100192.31;;;19.89;65.21
42105;BME280;70664;51.472;5.712;2023-08-06T00:56:56;100188.03;;;19.88;65.69
42105;BME280;70664;51.472;5.712;2023-08-06T00:59:23;100181.81;;;19.90;65.14
42105;BME280;70664;51.472;5.712;2023-08-06T01:01:49;100181.03;;;19.88;65.79
42105;BME280;70664;51.472;5.712;2023-08-06T01:04:16;100183.63;;;19.88;65.28
42105;BME280;70664;51.472;5.712;2023-08-06T01:12:48;100180.22;;;19.86;65.34
42105;BME280;70664;51.472;5.712;2023-08-06T01:15:29;100180.34;;;19.83;65.48
42105;BME280;70664;51.472;5.712;2023-08-06T01:17:56;100178.59;;;19.84;65.76
42105;BME280;70664;51.472;5.712;2023-08-06T01:20:28;100176.84;;;19.84;65.69
42105;BME280;70664;51.472;5.712;2023-08-06T01:22:53;100184.66;;;19.84;65.48
42105;BME280;70664;51.472;5.712;2023-08-06T01:25:19;100178.66;;;19.82;65.49
42105;BME280;70664;51.472;5.712;2023-08-06T01:27:49;100172.63;;;19.82;65.75
42105;BME280;70664;51.472;5.712;2023-08-06T01:30:26;100176.06;;;19.82;65.72
42105;BME280;70664;51.472;5.712;2023-08-06T01:32:58;100177.59;;;19.86;65.60
42105;BME280;70664;51.472;5.712;2023-08-06T01:35:27;100171.47;;;19.87;65.33
42105;BME280;70664;51.472;5.712;2023-08-06T01:37:55;100178.47;;;19.87;65.32
42105;BME280;70664;51.472;5.712;2023-08-06T01:40:21;100180.31;;;19.85;65.72
42105;BME280;70664;51.472;5.712;2023-08-06T01:42:47;100187.25;;;19.84;65.38
42105;BME280;70664;51.472;5.712;2023-08-06T01:45:13;100177.06;;;19.80;65.89
42105;BME280;70664;51.472;5.712;2023-08-06T01:47:39;100183.03;;;19.82;65.42
42105;BME280;70664;51.472;5.712;2023-08-06T01:50:05;100177.88;;;19.80;65.58
42105;BME280;70664;51.472;5.712;2023-08-06T01:52:31;100177.06;;;19.80;65.78
42105;BME280;70664;51.472;5.712;2023-08-06T01:54:57;100175.34;;;19.79;65.64
42105;BME280;70664;51.472;5.712;2023-08-06T01:57:23;100175.44;;;19.77;66.07
42105;BME280;70664;51.472;5.712;2023-08-06T01:59:49;100177.13;;;19.78;65.60
42105;BME280;70664;51.472;5.712;2023-08-06T02:02:15;100178.06;;;19.77;65.80
42105;BME280;70664;51.472;5.712;2023-08-06T02:04:40;100182.28;;;19.80;65.91
42105;BME280;70664;51.472;5.712;2023-08-06T02:07:06;100177.97;;;19.79;65.99
42105;BME280;70664;51.472;5.712;2023-08-06T02:09:35;100172.75;;;19.79;65.79
42105;BME280;70664;51.472;5.712;2023-08-06T02:12:01;100178.88;;;19.77;65.52
42105;BME280;70664;51.472;5.712;2023-08-06T02:14:28;100182.28;;;19.80;65.84
42105;BME280;70664;51.472;5.712;2023-08-06T02:16:54;100178.84;;;19.79;65.68
42105;BME280;70664;51.472;5.712;2023-08-06T02:19:19;100171.91;;;19.78;65.61
42105;BME280;70664;51.472;5.712;2023-08-06T02:21:45;100183.19;;;19.79;65.89
42105;BME280;70664;51.472;5.712;2023-08-06T02:24:11;100171.97;;;19.76;65.50
42105;BME280;70664;51.472;5.712;2023-08-06T02:26:37;100172.84;;;19.77;65.50
42105;BME280;70664;51.472;5.712;2023-08-06T02:29:02;100177.13;;;19.78;65.79
42105;BME280;70664;51.472;5.712;2023-08-06T02:31:28;100171.97;;;19.76;65.80
42105;BME280;70664;51.472;5.712;2023-08-06T02:33:54;100165.00;;;19.77;65.75
42105;BME280;70664;51.472;5.712;2023-08-06T02:36:20;100171.06;;;19.77;65.35
42105;BME280;70664;51.472;5.712;2023-08-06T02:38:47;100161.50;;;19.78;65.51
42105;BME280;70664;51.472;5.712;2023-08-06T02:41:12;100160.63;;;19.77;65.45
42105;BME280;70664;51.472;5.712;2023-08-06T02:43:38;100165.00;;;19.77;65.39
42105;BME280;70664;51.472;5.712;2023-08-06T02:46:04;100159.78;;;19.77;65.56
42105;BME280;70664;51.472;5.712;2023-08-06T02:48:30;100159.78;;;19.77;65.24
42105;BME280;70664;51.472;5.712;2023-08-06T02:51:00;100151.19;;;19.75;65.12
42105;BME280;70664;51.472;5.712;2023-08-06T02:53:26;100157.25;;;19.75;65.35
42105;BME280;70664;51.472;5.712;2023-08-06T02:55:52;100159.94;;;19.74;65.68
42105;BME280;70664;51.472;5.712;2023-08-06T02:58:18;100153.03;;;19.73;65.45
42105;BME280;70664;51.472;5.712;2023-08-06T03:01:00;100149.50;;;19.74;65.48
42105;BME280;70664;51.472;5.712;2023-08-06T03:03:26;100154.56;;;19.77;65.36
42105;BME280;70664;51.472;5.712;2023-08-06T03:05:53;100147.66;;;19.76;65.50
42105;BME280;70664;51.472;5.712;2023-08-06T03:08:19;100144.19;;;19.75;65.58
42105;BME280;70664;51.472;5.712;2023-08-06T03:10:49;100141.59;;;19.75;65.61
42105;BME280;70664;51.472;5.712;2023-08-06T03:13:16;100142.50;;;19.74;65.44
42105;BME280;70664;51.472;5.712;2023-08-06T03:15:42;100146.81;;;19.75;65.60
42105;BME280;70664;51.472;5.712;2023-08-06T03:18:08;100144.28;;;19.74;65.44
42105;BME280;70664;51.472;5.712;2023-08-06T03:20:34;100140.03;;;19.71;65.57
42105;BME280;70664;51.472;5.712;2023-08-06T03:23:00;100143.50;;;19.72;65.37
42105;BME280;70664;51.472;5.712;2023-08-06T03:25:26;100147.03;;;19.71;65.33
42105;BME280;70664;51.472;5.712;2023-08-06T03:27:51;100142.66;;;19.71;65.33
42105;BME280;70664;51.472;5.712;2023-08-06T03:30:17;100142.59;;;19.73;65.39
42105;BME280;70664;51.472;5.712;2023-08-06T03:32:43;100139.25;;;19.69;65.19
42105;BME280;70664;51.472;5.712;2023-08-06T03:35:09;100140.94;;;19.70;65.60
42105;BME280;70664;51.472;5.712;2023-08-06T03:37:35;100138.34;;;19.70;65.31
42105;BME280;70664;51.472;5.712;2023-08-06T03:40:00;100144.47;;;19.69;65.21
42105;BME280;70664;51.472;5.712;2023-08-06T03:42:26;100147.94;;;19.70;65.32
42105;BME280;70664;51.472;5.712;2023-08-06T03:44:52;100146.16;;;19.70;65.66
42105;BME280;70664;51.472;5.712;2023-08-06T03:47:18;100139.25;;;19.69;65.70
42105;BME280;70664;51.472;5.712;2023-08-06T03:49:44;100144.47;;;19.69;65.61
42105;BME280;70664;51.472;5.712;2023-08-06T03:52:10;100141.81;;;19.71;65.75
42105;BME280;70664;51.472;5.712;2023-08-06T03:54:35;100146.03;;;19.73;65.31
42105;BME280;70664;51.472;5.712;2023-08-06T03:57:01;100144.34;;;19.72;65.25
42105;BME280;70664;51.472;5.712;2023-08-06T03:59:27;100139.22;;;19.71;65.50
42105;BME280;70664;51.472;5.712;2023-08-06T04:01:53;100137.38;;;19.73;65.59
42105;BME280;70664;51.472;5.712;2023-08-06T04:04:19;100140.91;;;19.72;65.66
42105;BME280;70664;51.472;5.712;2023-08-06T04:06:45;100140.91;;;19.72;65.37
42105;BME280;70664;51.472;5.712;2023-08-06T04:09:10;100147.03;;;19.71;65.79
42105;BME280;70664;51.472;5.712;2023-08-06T04:11:36;100140.91;;;19.72;65.33
42105;BME280;70664;51.472;5.712;2023-08-06T04:14:02;100145.19;;;19.73;65.60
42105;BME280;70664;51.472;5.712;2023-08-06T04:16:28;100152.16;;;19.72;65.45
42105;BME280;70664;51.472;5.712;2023-08-06T04:18:54;100155.63;;;19.73;65.33
42105;BME280;70664;51.472;5.712;2023-08-06T04:21:21;100156.53;;;19.72;65.31
42105;BME280;70664;51.472;5.712;2023-08-06T04:23:47;100158.25;;;19.73;65.38
42105;BME280;70664;51.472;5.712;2023-08-06T04:26:12;100168.66;;;19.73;65.59
42105;BME280;70664;51.472;5.712;2023-08-06T04:28:38;100164.38;;;19.72;65.77
42105;BME280;70664;51.472;5.712;2023-08-06T04:31:04;100170.41;;;19.72;65.71
42105;BME280;70664;51.472;5.712;2023-08-06T04:33:30;100172.19;;;19.72;65.15
42105;BME280;70664;51.472;5.712;2023-08-06T04:35:56;100170.50;;;19.71;65.23
42105;BME280;70664;51.472;5.712;2023-08-06T04:38:28;100175.72;;;19.71;65.75
42105;BME280;70664;51.472;5.712;2023-08-06T04:40:54;100173.09;;;19.71;65.31
42105;BME280;70664;51.472;5.712;2023-08-06T04:43:20;100171.28;;;19.73;65.66
42105;BME280;70664;51.472;5.712;2023-08-06T04:45:50;100172.19;;;19.72;65.63
42105;BME280;70664;51.472;5.712;2023-08-06T04:48:16;100175.63;;;19.72;65.32
42105;BME280;70664;51.472;5.712;2023-08-06T04:50:47;100175.63;;;19.72;65.69
42105;BME280;70664;51.472;5.712;2023-08-06T04:53:13;100182.63;;;19.72;65.81
42105;BME280;70664;51.472;5.712;2023-08-06T04:55:40;100173.16;;;19.69;65.35
42105;BME280;70664;51.472;5.712;2023-08-06T04:58:06;100174.84;;;19.70;65.42
42105;BME280;70664;51.472;5.712;2023-08-06T05:00:38;100180.03;;;19.72;65.64
42105;BME280;70664;51.472;5.712;2023-08-06T05:03:06;100174.72;;;19.73;65.56
42105;BME280;70664;51.472;5.712;2023-08-06T05:05:32;100177.41;;;19.72;65.58
42105;BME280;70664;51.472;5.712;2023-08-06T05:07:58;100180.94;;;19.71;65.80
42105;BME280;70664;51.472;5.712;2023-08-06T05:10:28;100181.00;;;19.69;65.55
42105;BME280;70664;51.472;5.712;2023-08-06T05:12:54;100182.63;;;19.72;65.42
42105;BME280;70664;51.472;5.712;2023-08-06T05:15:20;100190.50;;;19.70;65.46
42105;BME280;70664;51.472;5.712;2023-08-06T05:17:46;100193.09;;;19.70;65.47
42105;BME280;70664;51.472;5.712;2023-08-06T05:20:11;100201.72;;;19.72;65.64
42105;BME280;70664;51.472;5.712;2023-08-06T05:22:37;100200.03;;;19.71;65.74
42105;BME280;70664;51.472;5.712;2023-08-06T05:25:04;100199.09;;;19.72;65.42
42105;BME280;70664;51.472;5.712;2023-08-06T05:27:30;100201.78;;;19.71;65.60
42105;BME280;70664;51.472;5.712;2023-08-06T05:29:56;100199.19;;;19.71;65.85
42105;BME280;70664;51.472;5.712;2023-08-06T05:32:22;100207.00;;;19.71;65.88
42105;BME280;70664;51.472;5.712;2023-08-06T05:34:48;100206.09;;;19.72;65.42
42105;BME280;70664;51.472;5.712;2023-08-06T05:37:14;100205.31;;;19.70;65.52
42105;BME280;70664;51.472;5.712;2023-08-06T05:39:40;100209.63;;;19.71;65.72
42105;BME280;70664;51.472;5.712;2023-08-06T05:42:06;100207.84;;;19.71;65.57
42105;BME280;70664;51.472;5.712;2023-08-06T05:44:35;100217.38;;;19.72;65.74
42105;BME280;70664;51.472;5.712;2023-08-06T05:47:00;100219.13;;;19.72;65.43
42105;BME280;70664;51.472;5.712;2023-08-06T05:49:26;100227.88;;;19.71;65.36
42105;BME280;70664;51.472;5.712;2023-08-06T05:51:52;100225.28;;;19.71;65.44
42105;BME280;70664;51.472;5.712;2023-08-06T05:54:22;100227.88;;;19.71;65.84
42105;BME280;70664;51.472;5.712;2023-08-06T05:56:48;100231.31;;;19.71;65.84
42105;BME280;70664;51.472;5.712;2023-08-06T05:59:13;100234.91;;;19.69;65.83
42105;BME280;70664;51.472;5.712;2023-08-06T06:01:39;100238.31;;;19.71;65.67
42105;BME280;70664;51.472;5.712;2023-08-06T06:04:05;100242.66;;;19.70;65.51
42105;BME280;70664;51.472;5.712;2023-08-06T06:06:31;100247.88;;;19.70;65.59
42105;BME280;70664;51.472;5.712;2023-08-06T06:08:57;100248.78;;;19.69;65.53
42105;BME280;70664;51.472;5.712;2023-08-06T06:11:23;100256.56;;;19.71;65.74
42105;BME280;70664;51.472;5.712;2023-08-06T06:13:52;100254.88;;;19.70;65.75
42105;BME280;70664;51.472;5.712;2023-08-06T06:16:18;100257.53;;;19.68;65.58
42105;BME280;70664;51.472;5.712;2023-08-06T06:18:44;100260.22;;;19.67;66.05
42105;BME280;70664;51.472;5.712;2023-08-06T06:21:10;100261.97;;;19.66;65.91
42105;BME280;70664;51.472;5.712;2023-08-06T06:23:36;100267.97;;;19.68;66.21
42105;BME280;70664;51.472;5.712;2023-08-06T06:26:02;100275.78;;;19.68;65.90
42105;BME280;70664;51.472;5.712;2023-08-06T06:28:28;100284.53;;;19.67;65.67
42105;BME280;70664;51.472;5.712;2023-08-06T06:30:54;100284.53;;;19.67;65.91
42105;BME280;70664;51.472;5.712;2023-08-06T06:33:25;100291.44;;;19.68;65.60
42105;BME280;70664;51.472;5.712;2023-08-06T06:35:51;100294.03;;;19.68;65.89
42105;BME280;70664;51.472;5.712;2023-08-06T06:38:19;100297.44;;;19.70;65.53
42105;BME280;70664;51.472;5.712;2023-08-06T06:40:57;100297.56;;;19.67;65.76
42105;BME280;70664;51.472;5.712;2023-08-06T06:43:24;100294.97;;;19.67;65.64
42105;BME280;70664;51.472;5.712;2023-08-06T06:45:56;100305.34;;;19.69;66.08
42105;BME280;70664;51.472;5.712;2023-08-06T06:48:23;100306.16;;;19.69;65.89
42105;BME280;70664;51.472;5.712;2023-08-06T06:50:49;100300.94;;;19.69;66.10
42105;BME280;70664;51.472;5.712;2023-08-06T06:53:15;100311.47;;;19.68;65.98
42105;BME280;70664;51.472;5.712;2023-08-06T06:55:41;100311.38;;;19.69;65.61
42105;BME280;70664;51.472;5.712;2023-08-06T06:58:06;100310.56;;;19.69;65.74
42105;BME280;70664;51.472;5.712;2023-08-06T07:00:32;100309.69;;;19.68;65.62
42105;BME280;70664;51.472;5.712;2023-08-06T07:03:01;100311.38;;;19.69;65.64
42105;BME280;70664;51.472;5.712;2023-08-06T07:05:30;100310.56;;;19.69;65.91
42105;BME280;70664;51.472;5.712;2023-08-06T07:07:56;100310.56;;;19.69;65.49
42105;BME280;70664;51.472;5.712;2023-08-06T07:10:21;100311.38;;;19.69;65.84
42105;BME280;70664;51.472;5.712;2023-08-06T07:12:47;100319.16;;;19.71;65.59
42105;BME280;70664;51.472;5.712;2023-08-06T07:15:13;100317.38;;;19.71;65.72
42105;BME280;70664;51.472;5.712;2023-08-06T07:17:39;100315.63;;;19.72;65.74
42105;BME280;70664;51.472;5.712;2023-08-06T07:20:06;100316.47;;;19.72;65.47
42105;BME280;70664;51.472;5.712;2023-08-06T07:22:32;100320.78;;;19.73;65.49
42105;BME280;70664;51.472;5.712;2023-08-06T07:25:00;100326.78;;;19.75;65.80
42105;BME280;70664;51.472;5.712;2023-08-06T07:27:27;100326.00;;;19.73;65.76
42105;BME280;70664;51.472;5.712;2023-08-06T07:29:53;100329.47;;;19.74;65.45
42105;BME280;70664;51.472;5.712;2023-08-06T07:32:19;100330.38;;;19.73;65.71
42105;BME280;70664;51.472;5.712;2023-08-06T07:34:45;100324.25;;;19.74;65.49
42105;BME280;70664;51.472;5.712;2023-08-06T07:37:10;100330.28;;;19.74;65.76
42105;BME280;70664;51.472;5.712;2023-08-06T07:39:36;100335.50;;;19.74;65.40
42105;BME280;70664;51.472;5.712;2023-08-06T07:42:05;100339.75;;;19.77;65.82
42105;BME280;70664;51.472;5.712;2023-08-06T07:44:32;100341.50;;;19.76;65.60
42105;BME280;70664;51.472;5.712;2023-08-06T07:46:58;100344.97;;;19.77;65.75
42105;BME280;70664;51.472;5.712;2023-08-06T07:49:24;100339.81;;;19.75;65.73
42105;BME280;70664;51.472;5.712;2023-08-06T07:51:50;100347.59;;;19.77;65.46
42105;BME280;70664;51.472;5.712;2023-08-06T07:54:17;100358.06;;;19.75;66.17
42105;BME280;70664;51.472;5.712;2023-08-06T07:56:46;100353.72;;;19.76;65.98
42105;BME280;70664;51.472;5.712;2023-08-06T07:59:11;100355.47;;;19.75;65.91
42105;BME280;70664;51.472;5.712;2023-08-06T08:01:37;100361.59;;;19.74;65.76
42105;BME280;70664;51.472;5.712;2023-08-06T08:04:03;100374.63;;;19.74;65.71
42105;BME280;70664;51.472;5.712;2023-08-06T08:06:30;100369.41;;;19.74;66.13
42105;BME280;70664;51.472;5.712;2023-08-06T08:08:56;100360.88;;;19.71;66.16
42105;BME280;70664;51.472;5.712;2023-08-06T08:11:25;100373.06;;;19.70;66.12
42105;BME280;70664;51.472;5.712;2023-08-06T08:13:51;100377.69;;;19.64;66.07
42105;BME280;70664;51.472;5.712;2023-08-06T08:16:23;100384.50;;;19.68;66.29
42105;BME280;70664;51.472;5.712;2023-08-06T08:18:49;100376.66;;;19.68;66.50
42105;BME280;70664;51.472;5.712;2023-08-06T08:21:30;100384.41;;;19.69;66.93
42105;BME280;70664;51.472;5.712;2023-08-06T08:24:04;100397.41;;;19.71;66.63
42105;BME280;70664;51.472;5.712;2023-08-06T08:26:30;100404.38;;;19.70;66.27
42105;BME280;70664;51.472;5.712;2023-08-06T08:28:57;100407.06;;;19.69;66.69
42105;BME280;70664;51.472;5.712;2023-08-06T08:31:22;100399.44;;;19.64;66.09
42105;BME280;70664;51.472;5.712;2023-08-06T08:33:48;100407.06;;;19.69;65.89
42105;BME280;70664;51.472;5.712;2023-08-06T08:36:14;100411.47;;;19.67;65.95
42105;BME280;70664;51.472;5.712;2023-08-06T08:38:40;100415.84;;;19.66;66.73
42105;BME280;70664;51.472;5.712;2023-08-06T08:41:09;100415.91;;;19.65;66.26
42105;BME280;70664;51.472;5.712;2023-08-06T08:43:35;100422.00;;;19.65;66.27
42105;BME280;70664;51.472;5.712;2023-08-06T08:46:03;100428.03;;;19.66;66.34
42105;BME280;70664;51.472;5.712;2023-08-06T08:48:30;100423.84;;;19.61;66.63
42105;BME280;70664;51.472;5.712;2023-08-06T08:50:56;100437.63;;;19.65;66.54
42105;BME280;70664;51.472;5.712;2023-08-06T08:53:22;100431.69;;;19.61;66.27
42105;BME280;70664;51.472;5.712;2023-08-06T08:55:49;100432.41;;;19.65;66.45
42105;BME280;70664;51.472;5.712;2023-08-06T08:58:15;100437.69;;;19.64;66.36
42105;BME280;70664;51.472;5.712;2023-08-06T09:00:46;100438.53;;;19.64;66.34
42105;BME280;70664;51.472;5.712;2023-08-06T09:03:16;100442.91;;;19.64;66.42
42105;BME280;70664;51.472;5.712;2023-08-06T09:05:49;100441.19;;;19.63;66.84
42105;BME280;70664;51.472;5.712;2023-08-06T09:08:18;100456.66;;;19.67;66.85
42105;BME280;70664;51.472;5.712;2023-08-06T09:10:48;100450.72;;;19.64;66.83
42105;BME280;70664;51.472;5.712;2023-08-06T09:13:16;100454.91;;;19.68;67.34
42105;BME280;70664;51.472;5.712;2023-08-06T09:15:44;100452.28;;;19.68;67.34
42105;BME280;70664;51.472;5.712;2023-08-06T09:18:29;100456.66;;;19.67;67.15
42105;BME280;70664;51.472;5.712;2023-08-06T09:20:59;100460.03;;;19.69;66.98
42105;BME280;70664;51.472;5.712;2023-08-06T09:23:30;100454.13;;;19.66;66.47
42105;BME280;70664;51.472;5.712;2023-08-06T09:26:03;100468.78;;;19.68;66.51
42105;BME280;70664;51.472;5.712;2023-08-06T09:28:38;100474.16;;;19.65;66.80
42105;BME280;70664;51.472;5.712;2023-08-06T09:31:04;100469.69;;;19.67;66.31
42105;BME280;70664;51.472;5.712;2023-08-06T09:33:30;100483.59;;;19.68;66.78
42105;BME280;70664;51.472;5.712;2023-08-06T09:35:56;100467.88;;;19.69;66.59
42105;BME280;70664;51.472;5.712;2023-08-06T09:38:22;100477.50;;;19.67;66.85
42105;BME280;70664;51.472;5.712;2023-08-06T09:40:48;100480.13;;;19.67;66.42
42105;BME280;70664;51.472;5.712;2023-08-06T09:43:14;100481.81;;;19.68;66.46
42105;BME280;70664;51.472;5.712;2023-08-06T09:45:43;100488.81;;;19.68;66.36
42105;BME280;70664;51.472;5.712;2023-08-06T09:48:09;100476.69;;;19.67;66.37
42105;BME280;70664;51.472;5.712;2023-08-06T09:50:37;100483.78;;;19.63;66.47
42105;BME280;70664;51.472;5.712;2023-08-06T09:53:06;100488.03;;;19.66;66.65
42105;BME280;70664;51.472;5.712;2023-08-06T09:55:33;100490.72;;;19.64;66.74
42105;BME280;70664;51.472;5.712;2023-08-06T09:58:00;100499.38;;;19.65;66.48
42105;BME280;70664;51.472;5.712;2023-08-06T10:00:26;100507.00;;;19.69;66.69
42105;BME280;70664;51.472;5.712;2023-08-06T10:02:54;100511.41;;;19.67;66.43
42105;BME280;70664;51.472;5.712;2023-08-06T10:05:24;100512.84;;;19.76;66.77
42105;BME280;70664;51.472;5.712;2023-08-06T10:07:51;100514.53;;;19.77;66.55
42105;BME280;70664;51.472;5.712;2023-08-06T10:10:17;100515.56;;;19.73;66.76
42105;BME280;70664;51.472;5.712;2023-08-06T10:13:00;100521.63;;;19.73;66.55
42105;BME280;70664;51.472;5.712;2023-08-06T10:15:31;100517.44;;;19.69;66.65
42105;BME280;70664;51.472;5.712;2023-08-06T10:18:00;100516.91;;;19.61;66.93
42105;BME280;70664;51.472;5.712;2023-08-06T10:20:26;100524.84;;;19.58;67.10
42105;BME280;70664;51.472;5.712;2023-08-06T10:23:15;100526.66;;;19.56;67.51
42105;BME280;70664;51.472;5.712;2023-08-06T10:25:59;100524.06;;;19.56;67.43
42105;BME280;70664;51.472;5.712;2023-08-06T10:28:35;100534.53;;;19.54;67.50
42105;BME280;70664;51.472;5.712;2023-08-06T10:31:05;100533.69;;;19.54;67.06
42105;BME280;70664;51.472;5.712;2023-08-06T10:33:47;100528.72;;;19.48;67.37
42105;BME280;70664;51.472;5.712;2023-08-06T10:36:38;100531.31;;;19.48;67.57
42105;BME280;70664;51.472;5.712;2023-08-06T10:39:14;100522.59;;;19.49;67.53
42105;BME280;70664;51.472;5.712;2023-08-06T10:41:43;100532.19;;;19.48;67.20
42105;BME280;70664;51.472;5.712;2023-08-06T10:44:11;100534.13;;;19.43;67.48
42105;BME280;70664;51.472;5.712;2023-08-06T10:46:38;100540.16;;;19.43;67.86
42105;BME280;70664;51.472;5.712;2023-08-06T10:49:04;100542.84;;;19.42;67.55
42105;BME280;70664;51.472;5.712;2023-08-06T10:51:30;100544.47;;;19.44;67.67
42105;BME280;70664;51.472;5.712;2023-08-06T10:53:56;100548.97;;;19.41;67.64
42105;BME280;70664;51.472;5.712;2023-08-06T10:56:25;100552.06;;;19.51;67.24
42105;BME280;70664;51.472;5.712;2023-08-06T10:58:55;100561.78;;;19.47;67.30
42105;BME280;70664;51.472;5.712;2023-08-06T11:01:24;100563.47;;;19.48;67.29
42105;BME280;70664;51.472;5.712;2023-08-06T11:03:54;100557.38;;;19.48;67.18
42105;BME280;70664;51.472;5.712;2023-08-06T11:06:21;100555.81;;;19.43;67.47
42105;BME280;70664;51.472;5.712;2023-08-06T11:08:53;100573.25;;;19.41;67.27
42105;BME280;70664;51.472;5.712;2023-08-06T11:11:19;100572.31;;;19.44;67.61
42105;BME280;70664;51.472;5.712;2023-08-06T11:13:48;100557.66;;;19.64;67.02
42105;BME280;70664;51.472;5.712;2023-08-06T11:16:24;100576.22;;;19.78;66.94
42105;BME280;70664;51.472;5.712;2023-08-06T11:18:50;100569.00;;;19.85;66.89
42105;BME280;70664;51.472;5.712;2023-08-06T11:21:21;100580.19;;;19.88;66.73
42105;BME280;70664;51.472;5.712;2023-08-06T11:23:47;100578.34;;;19.90;66.30
42105;BME280;70664;51.472;5.712;2023-08-06T11:26:22;100587.69;;;19.96;66.60
42105;BME280;70664;51.472;5.712;2023-08-06T11:28:51;100587.56;;;19.99;66.24
42105;BME280;70664;51.472;5.712;2023-08-06T11:31:22;100580.53;;;20.01;66.44
42105;BME280;70664;51.472;5.712;2023-08-06T11:33:52;100581.31;;;20.03;66.49
42105;BME280;70664;51.472;5.712;2023-08-06T11:36:33;100587.41;;;20.04;66.39
42105;BME280;70664;51.472;5.712;2023-08-06T11:39:00;100583.09;;;20.03;66.05
42105;BME280;70664;51.472;5.712;2023-08-06T11:41:29;100582.97;;;20.06;66.33
42105;BME280;70664;51.472;5.712;2023-08-06T11:43:55;100589.03;;;20.06;66.24
42105;BME280;70664;51.472;5.712;2023-08-06T11:46:23;100600.34;;;20.07;66.12
42105;BME280;70664;51.472;5.712;2023-08-06T11:48:56;100595.13;;;20.07;65.89
42105;BME280;70664;51.472;5.712;2023-08-06T11:51:26;100602.09;;;20.06;66.23
42105;BME280;70664;51.472;5.712;2023-08-06T11:53:59;100599.53;;;20.05;66.26
42105;BME280;70664;51.472;5.712;2023-08-06T11:56:25;100604.81;;;20.03;66.00
42105;BME280;70664;51.472;5.712;2023-08-06T11:58:52;100597.06;;;20.02;66.38
42105;BME280;70664;51.472;5.712;2023-08-06T12:01:19;100600.50;;;20.02;66.46
42105;BME280;70664;51.472;5.712;2023-08-06T12:03:45;100598.81;;;20.01;66.24
42105;BME280;70664;51.472;5.712;2023-08-06T12:06:11;100601.41;;;20.01;66.46
42105;BME280;70664;51.472;5.712;2023-08-06T12:08:37;100603.97;;;20.03;66.62
42105;BME280;70664;51.472;5.712;2023-08-06T12:11:04;100600.47;;;20.04;66.17
42105;BME280;70664;51.472;5.712;2023-08-06T12:13:30;100610.94;;;20.02;66.67
42105;BME280;70664;51.472;5.712;2023-08-06T12:15:55;100613.63;;;20.01;66.71
42105;BME280;70664;51.472;5.712;2023-08-06T12:18:23;100607.50;;;20.02;66.37
42105;BME280;70664;51.472;5.712;2023-08-06T12:20:49;100612.75;;;20.00;66.58
42105;BME280;70664;51.472;5.712;2023-08-06T12:23:15;100620.53;;;20.02;66.84
42105;BME280;70664;51.472;5.712;2023-08-06T12:25:41;100618.72;;;20.04;66.52
42105;BME280;70664;51.472;5.712;2023-08-06T12:28:07;100617.66;;;20.08;66.35
42105;BME280;70664;51.472;5.712;2023-08-06T12:30:35;100623.03;;;20.05;66.89
42105;BME280;70664;51.472;5.712;2023-08-06T12:33:01;100624.00;;;20.02;66.96
42105;BME280;70664;51.472;5.712;2023-08-06T12:35:27;100621.94;;;20.11;66.33
42105;BME280;70664;51.472;5.712;2023-08-06T12:37:52;100626.47;;;20.05;66.99
42105;BME280;70664;51.472;5.712;2023-08-06T12:40:20;100629.97;;;20.06;66.52
42105;BME280;70664;51.472;5.712;2023-08-06T12:42:46;100624.78;;;20.04;67.02
42105;BME280;70664;51.472;5.712;2023-08-06T12:45:12;100624.72;;;20.06;66.60
42105;BME280;70664;51.472;5.712;2023-08-06T12:47:38;100620.47;;;20.03;66.68
42105;BME280;70664;51.472;5.712;2023-08-06T12:50:05;100629.97;;;20.06;66.85
42105;BME280;70664;51.472;5.712;2023-08-06T12:52:33;100630.78;;;20.06;66.99
42105;BME280;70664;51.472;5.712;2023-08-06T12:54:59;100628.19;;;20.06;66.78
42105;BME280;70664;51.472;5.712;2023-08-06T12:57:25;100627.34;;;20.06;66.89